Aviation Digital Data Service (ADDS)

Output produced by TAFs form (1704 UTC 29 May 2017)
found at http://www.aviationweather.gov/adds/tafs/
 
Forecast for: RJOK (KOCHI AIRPORT , JP)
Text: TAF RJOK 291106Z 2912/3018 35006KT CAVOK
Forecast period: 1200 UTC 29 May 2017 to 0000 UTC 30 May 2017
Forecast type: FROM: standard forecast or significant change
Winds: from the N (350 degrees) at 7 MPH (6 knots; 3.1 m/s)
Visibility: 6 or more miles (10+ km)
Clouds: not forecast
Weather: NSW  (no significant weather)
Text: BECMG 3000/3003 18007KT
Forecast period: 0000 to 0900 UTC 30 May 2017
Forecast type: BECOMING: Conditions expected to become as follows by 0300 UTC 30 May 2017
Winds: from the S (180 degrees) at 8 MPH (7 knots; 3.6 m/s)
Visibility: 6 or more miles (10+ km)
Weather: NSW  (no significant weather)
Text: BECMG 3009/3012 35006KT
Forecast period: 0900 to 1800 UTC 30 May 2017
Forecast type: BECOMING: Conditions expected to become as follows by 1200 UTC 30 May 2017
Winds: from the N (350 degrees) at 7 MPH (6 knots; 3.1 m/s)
Visibility: 6 or more miles (10+ km)
Weather: NSW  (no significant weather)